sensor_id;sensor_type;location;lat;lon;timestamp;pressure;altitude;pressure_sealevel;temperature;humidity
49515;BME280;35415;47.870;16.058;2023-02-13T00:02:12;99372.03;;;1.55;98.11
49515;BME280;35415;47.870;16.058;2023-02-13T00:04:40;99368.00;;;1.50;98.44
49515;BME280;35415;47.870;16.058;2023-02-13T00:07:07;99377.50;;;1.53;98.34
49515;BME280;35415;47.870;16.058;2023-02-13T00:09:36;99358.84;;;1.37;98.46
49515;BME280;35415;47.870;16.058;2023-02-13T00:12:03;99372.44;;;1.42;98.94
49515;BME280;35415;47.870;16.058;2023-02-13T00:14:33;99376.94;;;1.41;98.88
49515;BME280;35415;47.870;16.058;2023-02-13T00:17:01;99386.88;;;1.39;99.24
49515;BME280;35415;47.870;16.058;2023-02-13T00:19:28;99387.03;;;1.38;99.05
49515;BME280;35415;47.870;16.058;2023-02-13T00:21:56;99371.22;;;1.28;99.65
49515;BME280;35415;47.870;16.058;2023-02-13T00:24:23;99383.38;;;1.39;99.71
49515;BME280;35415;47.870;16.058;2023-02-13T00:26:52;99381.88;;;1.36;99.78
49515;BME280;35415;47.870;16.058;2023-02-13T00:29:20;99352.88;;;1.09;99.86
49515;BME280;35415;47.870;16.058;2023-02-13T00:31:47;99395.06;;;1.28;99.83
49515;BME280;35415;47.870;16.058;2023-02-13T00:34:14;99394.56;;;1.25;99.76
49515;BME280;35415;47.870;16.058;2023-02-13T00:36:41;99395.88;;;1.20;100.00
49515;BME280;35415;47.870;16.058;2023-02-13T00:39:10;99385.19;;;1.12;99.90
49515;BME280;35415;47.870;16.058;2023-02-13T00:41:37;99379.56;;;1.15;99.76
49515;BME280;35415;47.870;16.058;2023-02-13T00:44:08;99377.88;;;1.06;99.95
49515;BME280;35415;47.870;16.058;2023-02-13T00:46:35;99388.50;;;1.14;100.00
49515;BME280;35415;47.870;16.058;2023-02-13T00:49:03;99389.81;;;1.10;100.00
49515;BME280;35415;47.870;16.058;2023-02-13T00:51:31;99366.16;;;0.91;100.00
49515;BME280;35415;47.870;16.058;2023-02-13T00:53:58;99394.75;;;1.05;100.00
49515;BME280;35415;47.870;16.058;2023-02-13T00:56:25;99391.28;;;1.05;100.00
49515;BME280;35415;47.870;16.058;2023-02-13T00:58:53;99395.75;;;1.04;100.00
49515;BME280;35415;47.870;16.058;2023-02-13T01:01:22;99396.56;;;1.05;100.00
49515;BME280;35415;47.870;16.058;2023-02-13T01:03:49;99397.19;;;0.99;100.00
49515;BME280;35415;47.870;16.058;2023-02-13T01:06:16;99388.72;;;0.95;100.00
49515;BME280;35415;47.870;16.058;2023-02-13T01:08:43;99394.16;;;0.94;100.00
49515;BME280;35415;47.870;16.058;2023-02-13T01:11:10;99353.53;;;0.67;100.00
49515;BME280;35415;47.870;16.058;2023-02-13T01:13:37;99380.03;;;0.85;100.00
49515;BME280;35415;47.870;16.058;2023-02-13T01:16:06;99375.50;;;0.77;100.00
49515;BME280;35415;47.870;16.058;2023-02-13T01:18:34;99389.41;;;0.79;100.00
49515;BME280;35415;47.870;16.058;2023-02-13T01:21:04;99367.41;;;0.61;100.00
49515;BME280;35415;47.870;16.058;2023-02-13T01:23:33;99387.53;;;0.72;100.00
49515;BME280;35415;47.870;16.058;2023-02-13T01:26:03;99392.31;;;0.68;100.00
49515;BME280;35415;47.870;16.058;2023-02-13T01:28:31;99384.97;;;0.62;100.00
49515;BME280;35415;47.870;16.058;2023-02-13T01:30:58;99392.31;;;0.68;100.00
49515;BME280;35415;47.870;16.058;2023-02-13T01:33:26;99389.94;;;0.65;100.00
49515;BME280;35415;47.870;16.058;2023-02-13T01:35:56;99389.13;;;0.65;100.00
49515;BME280;35415;47.870;16.058;2023-02-13T01:38:24;99394.03;;;0.59;100.00
49515;BME280;35415;47.870;16.058;2023-02-13T01:40:52;99393.69;;;0.54;100.00
49515;BME280;35415;47.870;16.058;2023-02-13T01:43:20;99392.84;;;0.54;100.00
49515;BME280;35415;47.870;16.058;2023-02-13T01:45:50;99392.69;;;0.55;100.00
49515;BME280;35415;47.870;16.058;2023-02-13T01:48:22;99394.00;;;0.51;100.00
49515;BME280;35415;47.870;16.058;2023-02-13T01:50:53;99394.00;;;0.51;100.00
49515;BME280;35415;47.870;16.058;2023-02-13T01:53:27;99389.53;;;0.52;100.00
49515;BME280;35415;47.870;16.058;2023-02-13T01:55:59;99376.56;;;0.49;100.00
49515;BME280;35415;47.870;16.058;2023-02-13T01:58:31;99389.78;;;0.49;100.00
49515;BME280;35415;47.870;16.058;2023-02-13T02:01:00;99349.88;;;0.24;100.00
49515;BME280;35415;47.870;16.058;2023-02-13T02:03:31;99365.38;;;0.37;100.00
49515;BME280;35415;47.870;16.058;2023-02-13T02:06:04;99384.66;;;0.47;100.00
49515;BME280;35415;47.870;16.058;2023-02-13T02:08:35;99376.28;;;0.34;100.00
49515;BME280;35415;47.870;16.058;2023-02-13T02:11:06;99380.13;;;0.40;100.00
49515;BME280;35415;47.870;16.058;2023-02-13T02:13:35;99371.50;;;0.38;100.00
49515;BME280;35415;47.870;16.058;2023-02-13T02:16:04;99377.13;;;0.35;100.00
49515;BME280;35415;47.870;16.058;2023-02-13T02:18:31;99372.41;;;0.28;100.00
49515;BME280;35415;47.870;16.058;2023-02-13T02:27:19;99290.19;;;-0.23;100.00
49515;BME280;35415;47.870;16.058;2023-02-13T02:33:02;99357.34;;;0.11;100.00
49515;BME280;35415;47.870;16.058;2023-02-13T02:35:39;99372.34;;;0.20;100.00
49515;BME280;35415;47.870;16.058;2023-02-13T02:38:19;99370.81;;;0.18;100.00
49515;BME280;35415;47.870;16.058;2023-02-13T02:40:57;99372.91;;;0.14;100.00
49515;BME280;35415;47.870;16.058;2023-02-13T02:43:40;99367.09;;;0.11;100.00
49515;BME280;35415;47.870;16.058;2023-02-13T02:46:16;99313.47;;;-0.27;100.00
49515;BME280;35415;47.870;16.058;2023-02-13T02:48:52;99369.75;;;0.11;100.00
49515;BME280;35415;47.870;16.058;2023-02-13T02:51:46;99365.88;;;0.05;100.00
49515;BME280;35415;47.870;16.058;2023-02-13T02:54:23;99366.56;;;0.07;100.00
49515;BME280;35415;47.870;16.058;2023-02-13T02:57:12;99368.69;;;0.04;100.00
49515;BME280;35415;47.870;16.058;2023-02-13T02:59:42;99372.59;;;-0.01;100.00
49515;BME280;35415;47.870;16.058;2023-02-13T03:02:27;99370.91;;;-0.02;100.00
49515;BME280;35415;47.870;16.058;2023-02-13T03:05:19;99355.97;;;-0.11;100.00
49515;BME280;35415;47.870;16.058;2023-02-13T03:08:04;99376.50;;;-0.05;100.00
49515;BME280;35415;47.870;16.058;2023-02-13T03:10:35;99380.16;;;-0.06;100.00
49515;BME280;35415;47.870;16.058;2023-02-13T03:13:36;99375.84;;;-0.07;100.00
49515;BME280;35415;47.870;16.058;2023-02-13T03:16:05;99378.94;;;-0.11;100.00
49515;BME280;35415;47.870;16.058;2023-02-13T03:18:52;99380.91;;;-0.13;100.00
49515;BME280;35415;47.870;16.058;2023-02-13T03:21:46;99382.72;;;-0.14;100.00
49515;BME280;35415;47.870;16.058;2023-02-13T03:24:40;99374.50;;;-0.20;100.00
49515;BME280;35415;47.870;16.058;2023-02-13T03:27:13;99379.50;;;-0.17;100.00
49515;BME280;35415;47.870;16.058;2023-02-13T03:30:12;99375.34;;;-0.20;100.00
49515;BME280;35415;47.870;16.058;2023-02-13T03:32:47;99376.31;;;-0.21;100.00
49515;BME280;35415;47.870;16.058;2023-02-13T03:35:28;99371.78;;;-0.28;100.00
49515;BME280;35415;47.870;16.058;2023-02-13T03:38:22;99374.97;;;-0.25;100.00
49515;BME280;35415;47.870;16.058;2023-02-13T03:40:56;99378.44;;;-0.24;100.00
49515;BME280;35415;47.870;16.058;2023-02-13T03:43:46;99375.78;;;-0.24;100.00
49515;BME280;35415;47.870;16.058;2023-02-13T03:46:18;99367.63;;;-0.31;100.00
49515;BME280;35415;47.870;16.058;2023-02-13T03:48:46;99376.25;;;-0.29;100.00
49515;BME280;35415;47.870;16.058;2023-02-13T03:51:35;99375.25;;;-0.28;100.00
49515;BME280;35415;47.870;16.058;2023-02-13T03:54:10;99378.88;;;-0.29;100.00
49515;BME280;35415;47.870;16.058;2023-02-13T03:56:39;99380.16;;;-0.33;100.00
49515;BME280;35415;47.870;16.058;2023-02-13T03:59:28;99378.47;;;-0.34;100.00
49515;BME280;35415;47.870;16.058;2023-02-13T04:02:00;99371.41;;;-0.34;100.00
49515;BME280;35415;47.870;16.058;2023-02-13T04:04:36;99377.53;;;-0.33;100.00
49515;BME280;35415;47.870;16.058;2023-02-13T04:07:08;99369.69;;;-0.35;100.00
49515;BME280;35415;47.870;16.058;2023-02-13T04:09:40;99372.34;;;-0.35;100.00
49515;BME280;35415;47.870;16.058;2023-02-13T04:12:14;99368.03;;;-0.36;100.00
49515;BME280;35415;47.870;16.058;2023-02-13T04:14:47;99374.16;;;-0.35;100.00
49515;BME280;35415;47.870;16.058;2023-02-13T04:17:18;99374.31;;;-0.37;100.00
49515;BME280;35415;47.870;16.058;2023-02-13T04:19:49;99374.59;;;-0.40;100.00
49515;BME280;35415;47.870;16.058;2023-02-13T04:22:17;99372.66;;;-0.38;100.00
49515;BME280;35415;47.870;16.058;2023-02-13T04:24:46;99369.47;;;-0.41;100.00
49515;BME280;35415;47.870;16.058;2023-02-13T04:27:14;99375.59;;;-0.41;100.00
49515;BME280;35415;47.870;16.058;2023-02-13T04:29:42;99369.63;;;-0.43;100.00
49515;BME280;35415;47.870;16.058;2023-02-13T04:32:10;99359.19;;;-0.44;100.00
49515;BME280;35415;47.870;16.058;2023-02-13T04:34:38;99357.81;;;-0.48;100.00
49515;BME280;35415;47.870;16.058;2023-02-13T04:37:05;99365.47;;;-0.45;100.00
49515;BME280;35415;47.870;16.058;2023-02-13T04:39:32;99364.22;;;-0.51;100.00
49515;BME280;35415;47.870;16.058;2023-02-13T04:42:01;99352.56;;;-0.58;100.00
49515;BME280;35415;47.870;16.058;2023-02-13T04:44:29;99367.72;;;-0.50;100.00
49515;BME280;35415;47.870;16.058;2023-02-13T04:46:56;99364.81;;;-0.57;100.00
49515;BME280;35415;47.870;16.058;2023-02-13T04:49:23;99375.50;;;-0.49;100.00
49515;BME280;35415;47.870;16.058;2023-02-13T04:51:50;99380.94;;;-0.50;100.00
49515;BME280;35415;47.870;16.058;2023-02-13T04:54:17;99383.44;;;-0.49;100.00
49515;BME280;35415;47.870;16.058;2023-02-13T04:56:44;99372.28;;;-0.52;100.00
49515;BME280;35415;47.870;16.058;2023-02-13T04:59:13;99366.63;;;-0.57;100.00
49515;BME280;35415;47.870;16.058;2023-02-13T05:01:40;99372.03;;;-0.59;100.00
49515;BME280;35415;47.870;16.058;2023-02-13T05:04:07;99372.34;;;-0.62;100.00
49515;BME280;35415;47.870;16.058;2023-02-13T05:06:35;99374.84;;;-0.61;100.00
49515;BME280;35415;47.870;16.058;2023-02-13T05:09:03;99377.78;;;-0.64;100.00
49515;BME280;35415;47.870;16.058;2023-02-13T05:11:29;99377.09;;;-0.66;100.00
49515;BME280;35415;47.870;16.058;2023-02-13T05:13:56;99382.78;;;-0.70;100.00
49515;BME280;35415;47.870;16.058;2023-02-13T05:16:26;99379.31;;;-0.71;100.00
49515;BME280;35415;47.870;16.058;2023-02-13T05:18:53;99376.66;;;-0.71;100.00
49515;BME280;35415;47.870;16.058;2023-02-13T05:21:20;99367.06;;;-0.72;100.00
49515;BME280;35415;47.870;16.058;2023-02-13T05:24:05;99363.75;;;-0.74;100.00
49515;BME280;35415;47.870;16.058;2023-02-13T05:26:32;99361.09;;;-0.74;100.00
49515;BME280;35415;47.870;16.058;2023-02-13T05:28:59;99358.75;;;-0.77;100.00
49515;BME280;35415;47.870;16.058;2023-02-13T05:31:46;99365.84;;;-0.77;100.00
49515;BME280;35415;47.870;16.058;2023-02-13T05:34:14;99364.47;;;-0.81;100.00
49515;BME280;35415;47.870;16.058;2023-02-13T05:36:41;99354.91;;;-0.92;100.00
49515;BME280;35415;47.870;16.058;2023-02-13T05:39:08;99361.56;;;-0.88;100.00
49515;BME280;35415;47.870;16.058;2023-02-13T05:41:35;99376.44;;;-0.77;100.00
49515;BME280;35415;47.870;16.058;2023-02-13T05:44:03;99368.66;;;-0.79;100.00
49515;BME280;35415;47.870;16.058;2023-02-13T05:46:29;99361.84;;;-0.81;100.00
49515;BME280;35415;47.870;16.058;2023-02-13T05:48:58;99349.34;;;-0.89;100.00
49515;BME280;35415;47.870;16.058;2023-02-13T05:51:25;99360.31;;;-0.84;100.00
49515;BME280;35415;47.870;16.058;2023-02-13T05:53:52;99369.09;;;-0.83;100.00
49515;BME280;35415;47.870;16.058;2023-02-13T05:56:19;99371.56;;;-0.82;100.00
49515;BME280;35415;47.870;16.058;2023-02-13T05:58:46;99376.03;;;-0.82;100.00
49515;BME280;35415;47.870;16.058;2023-02-13T06:01:13;99367.81;;;-0.89;100.00
49515;BME280;35415;47.870;16.058;2023-02-13T06:03:40;99379.50;;;-0.82;100.00
49515;BME280;35415;47.870;16.058;2023-02-13T06:06:08;99386.59;;;-0.82;100.00
49515;BME280;35415;47.870;16.058;2023-02-13T06:08:35;99382.16;;;-0.82;100.00
49515;BME280;35415;47.870;16.058;2023-02-13T06:11:03;99361.31;;;-1.04;100.00
49515;BME280;35415;47.870;16.058;2023-02-13T06:13:30;99391.47;;;-0.87;100.00
49515;BME280;35415;47.870;16.058;2023-02-13T06:15:57;99380.09;;;-0.98;100.00
49515;BME280;35415;47.870;16.058;2023-02-13T06:18:24;99398.69;;;-0.89;100.00
49515;BME280;35415;47.870;16.058;2023-02-13T06:20:51;99404.13;;;-0.91;100.00
49515;BME280;35415;47.870;16.058;2023-02-13T06:23:20;99407.75;;;-0.92;100.00
49515;BME280;35415;47.870;16.058;2023-02-13T06:25:47;99406.06;;;-0.93;100.00
49515;BME280;35415;47.870;16.058;2023-02-13T06:28:14;99404.56;;;-0.96;100.00
49515;BME280;35415;47.870;16.058;2023-02-13T06:30:41;99404.69;;;-0.97;100.00
49515;BME280;35415;47.870;16.058;2023-02-13T06:33:08;99407.19;;;-0.96;100.00
49515;BME280;35415;47.870;16.058;2023-02-13T06:35:35;99384.97;;;-1.12;100.00
49515;BME280;35415;47.870;16.058;2023-02-13T06:38:03;99404.16;;;-1.01;100.00
49515;BME280;35415;47.870;16.058;2023-02-13T06:40:31;99407.34;;;-0.97;100.00
49515;BME280;35415;47.870;16.058;2023-02-13T06:42:58;99408.03;;;-0.95;100.00
49515;BME280;35415;47.870;16.058;2023-02-13T06:45:26;99406.38;;;-0.96;100.00
49515;BME280;35415;47.870;16.058;2023-02-13T06:47:53;99412.34;;;-0.94;100.00
49515;BME280;35415;47.870;16.058;2023-02-13T06:50:20;99415.97;;;-0.95;100.00
49515;BME280;35415;47.870;16.058;2023-02-13T06:52:48;99409.41;;;-0.91;100.00
49515;BME280;35415;47.870;16.058;2023-02-13T06:55:16;99403.00;;;-0.88;100.00
49515;BME280;35415;47.870;16.058;2023-02-13T06:57:45;99398.69;;;-0.89;100.00
49515;BME280;35415;47.870;16.058;2023-02-13T07:00:14;99403.44;;;-0.83;100.00
49515;BME280;35415;47.870;16.058;2023-02-13T07:02:43;99409.66;;;-0.84;100.00
49515;BME280;35415;47.870;16.058;2023-02-13T07:05:10;99412.03;;;-0.81;100.00
49515;BME280;35415;47.870;16.058;2023-02-13T07:07:39;99402.44;;;-0.82;100.00
49515;BME280;35415;47.870;16.058;2023-02-13T07:10:08;99410.34;;;-0.73;100.00
49515;BME280;35415;47.870;16.058;2023-02-13T07:12:36;99412.84;;;-0.71;100.00
49515;BME280;35415;47.870;16.058;2023-02-13T07:15:05;99418.81;;;-0.69;100.00
49515;BME280;35415;47.870;16.058;2023-02-13T07:17:32;99411.59;;;-0.67;100.00
49515;BME280;35415;47.870;16.058;2023-02-13T07:20:00;99398.66;;;-0.70;100.00
49515;BME280;35415;47.870;16.058;2023-02-13T07:22:29;99417.81;;;-0.58;100.00
49515;BME280;35415;47.870;16.058;2023-02-13T07:24:56;99412.53;;;-0.58;100.00
49515;BME280;35415;47.870;16.058;2023-02-13T07:27:25;99396.44;;;-0.65;100.00
49515;BME280;35415;47.870;16.058;2023-02-13T07:29:54;99419.72;;;-0.51;100.00
49515;BME280;35415;47.870;16.058;2023-02-13T07:32:23;99417.66;;;-0.47;100.00
49515;BME280;35415;47.870;16.058;2023-02-13T07:34:50;99413.88;;;-0.45;100.00
49515;BME280;35415;47.870;16.058;2023-02-13T07:37:17;99410.78;;;-0.40;100.00
49515;BME280;35415;47.870;16.058;2023-02-13T07:39:44;99407.84;;;-0.37;100.00
49515;BME280;35415;47.870;16.058;2023-02-13T07:42:11;99412.31;;;-0.38;100.00
49515;BME280;35415;47.870;16.058;2023-02-13T07:44:38;99415.38;;;-0.33;100.00
49515;BME280;35415;47.870;16.058;2023-02-13T07:47:05;99408.94;;;-0.30;100.00
49515;BME280;35415;47.870;16.058;2023-02-13T07:49:33;99421.44;;;-0.22;100.00
49515;BME280;35415;47.870;16.058;2023-02-13T07:52:02;99418.63;;;-0.21;100.00
49515;BME280;35415;47.870;16.058;2023-02-13T07:54:29;99421.56;;;-0.14;100.00
49515;BME280;35415;47.870;16.058;2023-02-13T07:56:56;99422.22;;;-0.12;100.00
49515;BME280;35415;47.870;16.058;2023-02-13T07:59:23;99417.31;;;-0.07;100.00
49515;BME280;35415;47.870;16.058;2023-02-13T08:01:50;99421.91;;;0.01;100.00
49515;BME280;35415;47.870;16.058;2023-02-13T08:04:17;99404.47;;;-0.02;100.00
49515;BME280;35415;47.870;16.058;2023-02-13T08:06:45;99424.63;;;0.09;100.00
49515;BME280;35415;47.870;16.058;2023-02-13T08:09:17;99432.25;;;0.12;100.00
49515;BME280;35415;47.870;16.058;2023-02-13T08:12:02;99428.34;;;0.16;100.00
49515;BME280;35415;47.870;16.058;2023-02-13T08:14:30;99420.13;;;0.19;100.00
49515;BME280;35415;47.870;16.058;2023-02-13T08:16:58;99421.63;;;0.21;100.00
49515;BME280;35415;47.870;16.058;2023-02-13T08:19:25;99434.25;;;0.27;100.00
49515;BME280;35415;47.870;16.058;2023-02-13T08:21:54;99407.16;;;0.16;100.00
49515;BME280;35415;47.870;16.058;2023-02-13T08:24:21;99426.13;;;0.39;100.00
49515;BME280;35415;47.870;16.058;2023-02-13T08:26:49;99420.66;;;0.40;100.00
49515;BME280;35415;47.870;16.058;2023-02-13T08:29:16;99424.53;;;0.46;100.00
49515;BME280;35415;47.870;16.058;2023-02-13T08:31:43;99424.06;;;0.50;100.00
49515;BME280;35415;47.870;16.058;2023-02-13T08:34:10;99421.00;;;0.55;100.00
49515;BME280;35415;47.870;16.058;2023-02-13T08:36:37;99413.72;;;0.57;100.00
49515;BME280;35415;47.870;16.058;2023-02-13T08:39:05;99421.44;;;0.68;100.00
49515;BME280;35415;47.870;16.058;2023-02-13T08:41:33;99416.00;;;0.70;100.00
49515;BME280;35415;47.870;16.058;2023-02-13T08:44:00;99415.53;;;0.74;100.00
49515;BME280;35415;47.870;16.058;2023-02-13T08:46:27;99411.59;;;0.78;100.00
49515;BME280;35415;47.870;16.058;2023-02-13T08:48:54;99407.38;;;0.85;100.00
49515;BME280;35415;47.870;16.058;2023-02-13T08:51:21;99404.25;;;0.90;100.00
49515;BME280;35415;47.870;16.058;2023-02-13T08:53:48;99399.31;;;0.95;100.00
49515;BME280;35415;47.870;16.058;2023-02-13T08:56:16;99394.53;;;0.99;100.00
49515;BME280;35415;47.870;16.058;2023-02-13T08:58:47;99392.72;;;0.99;100.00
49515;BME280;35415;47.870;16.058;2023-02-13T09:01:14;99402.59;;;1.15;100.00
49515;BME280;35415;47.870;16.058;2023-02-13T09:03:42;99406.75;;;1.17;100.00
49515;BME280;35415;47.870;16.058;2023-02-13T09:06:09;99400.03;;;1.23;100.00
49515;BME280;35415;47.870;16.058;2023-02-13T09:08:35;99404.00;;;1.27;100.00
49515;BME280;35415;47.870;16.058;2023-02-13T09:11:03;99402.38;;;1.34;100.00
49515;BME280;35415;47.870;16.058;2023-02-13T09:13:34;99402.09;;;1.37;100.00
49515;BME280;35415;47.870;16.058;2023-02-13T09:16:03;99411.41;;;1.41;100.00
49515;BME280;35415;47.870;16.058;2023-02-13T09:18:30;99401.16;;;1.46;100.00
49515;BME280;35415;47.870;16.058;2023-02-13T09:20:58;99406.84;;;1.52;100.00
49515;BME280;35415;47.870;16.058;2023-02-13T09:23:26;99409.84;;;1.57;100.00
49515;BME280;35415;47.870;16.058;2023-02-13T09:25:57;99417.31;;;1.61;100.00
49515;BME280;35415;47.870;16.058;2023-02-13T09:28:25;99407.88;;;1.67;100.00
49515;BME280;35415;47.870;16.058;2023-02-13T09:30:53;99401.13;;;1.72;100.00
49515;BME280;35415;47.870;16.058;2023-02-13T09:33:20;99405.94;;;1.77;100.00
49515;BME280;35415;47.870;16.058;2023-02-13T09:35:47;99403.47;;;1.84;100.00
49515;BME280;35415;47.870;16.058;2023-02-13T09:38:14;99414.47;;;1.89;100.00
49515;BME280;35415;47.870;16.058;2023-02-13T09:40:45;99377.25;;;1.72;100.00
49515;BME280;35415;47.870;16.058;2023-02-13T09:43:17;99357.81;;;1.64;100.00
49515;BME280;35415;47.870;16.058;2023-02-13T09:45:49;99408.06;;;2.07;100.00
49515;BME280;35415;47.870;16.058;2023-02-13T09:48:26;99406.44;;;2.15;100.00
49515;BME280;35415;47.870;16.058;2023-02-13T09:50:55;99401.47;;;2.20;100.00
49515;BME280;35415;47.870;16.058;2023-02-13T09:53:25;99390.16;;;2.18;100.00
49515;BME280;35415;47.870;16.058;2023-02-13T09:56:02;99405.63;;;2.30;100.00
49515;BME280;35415;47.870;16.058;2023-02-13T09:58:39;99399.69;;;2.36;100.00
49515;BME280;35415;47.870;16.058;2023-02-13T10:01:17;99410.31;;;2.45;100.00
49515;BME280;35415;47.870;16.058;2023-02-13T10:03:51;99409.81;;;2.49;100.00
49515;BME280;35415;47.870;16.058;2023-02-13T10:06:27;99412.84;;;2.54;100.00
49515;BME280;35415;47.870;16.058;2023-02-13T10:09:12;99413.66;;;2.63;100.00
49515;BME280;35415;47.870;16.058;2023-02-13T10:12:00;99415.69;;;2.69;100.00
49515;BME280;35415;47.870;16.058;2023-02-13T10:14:31;99411.53;;;2.75;100.00
49515;BME280;35415;47.870;16.058;2023-02-13T10:17:06;99412.34;;;2.83;100.00
49515;BME280;35415;47.870;16.058;2023-02-13T10:19:41;99414.38;;;2.89;100.00
49515;BME280;35415;47.870;16.058;2023-02-13T10:22:13;99415.69;;;2.93;100.00
49515;BME280;35415;47.870;16.058;2023-02-13T10:24:45;99413.03;;;3.01;100.00
49515;BME280;35415;47.870;16.058;2023-02-13T10:27:19;99401.25;;;3.04;100.00
49515;BME280;35415;47.870;16.058;2023-02-13T10:29:50;99399.22;;;3.14;100.00
49515;BME280;35415;47.870;16.058;2023-02-13T10:32:53;99402.91;;;3.21;100.00
49515;BME280;35415;47.870;16.058;2023-02-13T10:35:37;99404.03;;;3.27;100.00
49515;BME280;35415;47.870;16.058;2023-02-13T10:38:13;99389.75;;;3.28;100.00
49515;BME280;35415;47.870;16.058;2023-02-13T10:40:50;99400.53;;;3.43;100.00
49515;BME280;35415;47.870;16.058;2023-02-13T10:43:21;99395.19;;;3.51;99.25
49515;BME280;35415;47.870;16.058;2023-02-13T10:46:05;99385.69;;;3.56;99.16
49515;BME280;35415;47.870;16.058;2023-02-13T10:49:09;99383.84;;;3.65;98.80
49515;BME280;35415;47.870;16.058;2023-02-13T10:51:45;99388.50;;;3.71;98.94
49515;BME280;35415;47.870;16.058;2023-02-13T10:54:31;99382.28;;;3.79;98.64
49515;BME280;35415;47.870;16.058;2023-02-13T10:57:08;99380.75;;;3.84;98.53
49515;BME280;35415;47.870;16.058;2023-02-13T10:59:40;99383.41;;;3.92;98.60
49515;BME280;35415;47.870;16.058;2023-02-13T11:02:20;99383.34;;;4.01;98.26
49515;BME280;35415;47.870;16.058;2023-02-13T11:04:49;99381.03;;;4.06;98.11
49515;BME280;35415;47.870;16.058;2023-02-13T11:07:22;99381.97;;;4.13;98.36
49515;BME280;35415;47.870;16.058;2023-02-13T11:09:53;99344.94;;;4.03;97.82
49515;BME280;35415;47.870;16.058;2023-02-13T11:12:26;99371.41;;;4.28;98.14
49515;BME280;35415;47.870;16.058;2023-02-13T11:14:54;99373.19;;;4.35;98.60
49515;BME280;35415;47.870;16.058;2023-02-13T11:17:23;99360.53;;;4.37;97.40
49515;BME280;35415;47.870;16.058;2023-02-13T11:19:52;99365.09;;;4.51;97.57
49515;BME280;35415;47.870;16.058;2023-02-13T11:22:30;99344.94;;;4.49;97.45
49515;BME280;35415;47.870;16.058;2023-02-13T11:25:01;99331.25;;;4.52;96.69
49515;BME280;35415;47.870;16.058;2023-02-13T11:27:32;99308.28;;;4.51;96.13
49515;BME280;35415;47.870;16.058;2023-02-13T11:30:01;99339.09;;;4.76;95.92
49515;BME280;35415;47.870;16.058;2023-02-13T11:32:31;99354.75;;;4.94;95.26
49515;BME280;35415;47.870;16.058;2023-02-13T11:35:20;99352.84;;;5.03;95.06
49515;BME280;35415;47.870;16.058;2023-02-13T11:38:04;99349.09;;;5.12;95.71
49515;BME280;35415;47.870;16.058;2023-02-13T11:40:37;99346.53;;;5.19;94.03
49515;BME280;35415;47.870;16.058;2023-02-13T11:43:05;99354.66;;;5.25;93.67
49515;BME280;35415;47.870;16.058;2023-02-13T11:45:33;99346.72;;;5.32;93.16
49515;BME280;35415;47.870;16.058;2023-02-13T11:48:08;99345.00;;;5.39;93.07
49515;BME280;35415;47.870;16.058;2023-02-13T11:50:35;99346.94;;;5.45;92.67
49515;BME280;35415;47.870;16.058;2023-02-13T11:53:06;99343.50;;;5.51;92.30
49515;BME280;35415;47.870;16.058;2023-02-13T11:55:35;99351.63;;;5.58;92.50
49515;BME280;35415;47.870;16.058;2023-02-13T11:58:03;99348.03;;;5.65;92.54
49515;BME280;35415;47.870;16.058;2023-02-13T12:00:34;99349.13;;;5.71;91.44
49515;BME280;35415;47.870;16.058;2023-02-13T12:03:25;99348.19;;;5.79;91.55
49515;BME280;35415;47.870;16.058;2023-02-13T12:06:01;99344.59;;;5.86;91.33
49515;BME280;35415;47.870;16.058;2023-02-13T12:08:33;99341.22;;;5.92;91.06
49515;BME280;35415;47.870;16.058;2023-02-13T12:11:02;99325.84;;;5.94;90.42
49515;BME280;35415;47.870;16.058;2023-02-13T12:13:32;99337.22;;;6.03;90.34
49515;BME280;35415;47.870;16.058;2023-02-13T12:16:03;99318.53;;;6.03;89.44
49515;BME280;35415;47.870;16.058;2023-02-13T12:18:35;99326.06;;;6.14;89.44
49515;BME280;35415;47.870;16.058;2023-02-13T12:21:09;99324.66;;;6.18;89.26
49515;BME280;35415;47.870;16.058;2023-02-13T12:23:48;99323.28;;;6.22;89.13
49515;BME280;35415;47.870;16.058;2023-02-13T12:26:25;99323.34;;;6.29;88.88
49515;BME280;35415;47.870;16.058;2023-02-13T12:29:18;99318.44;;;6.32;89.06
49515;BME280;35415;47.870;16.058;2023-02-13T12:32:12;99317.03;;;6.37;88.94
49515;BME280;35415;47.870;16.058;2023-02-13T12:38:01;99323.28;;;6.44;87.87
49515;BME280;35415;47.870;16.058;2023-02-13T12:41:02;99297.25;;;6.31;87.64
49515;BME280;35415;47.870;16.058;2023-02-13T12:44:01;99316.94;;;6.45;87.76
49515;BME280;35415;47.870;16.058;2023-02-13T12:46:36;99306.25;;;6.45;87.87
49515;BME280;35415;47.870;16.058;2023-02-13T12:49:20;99319.03;;;6.49;87.17
49515;BME280;35415;47.870;16.058;2023-02-13T12:51:58;99315.72;;;6.47;87.04
49515;BME280;35415;47.870;16.058;2023-02-13T12:54:46;99307.50;;;6.49;87.16
49515;BME280;35415;47.870;16.058;2023-02-13T12:57:35;99295.97;;;6.48;86.86
49515;BME280;35415;47.870;16.058;2023-02-13T13:00:17;99292.47;;;6.48;86.41
49515;BME280;35415;47.870;16.058;2023-02-13T13:02:55;99290.44;;;6.50;86.00
49515;BME280;35415;47.870;16.058;2023-02-13T13:05:36;99302.34;;;6.47;85.52
49515;BME280;35415;47.870;16.058;2023-02-13T13:08:23;99304.19;;;6.47;85.29
49515;BME280;35415;47.870;16.058;2023-02-13T13:11:05;99306.88;;;6.47;85.38
49515;BME280;35415;47.870;16.058;2023-02-13T13:13:45;99308.72;;;6.46;85.36
49515;BME280;35415;47.870;16.058;2023-02-13T13:16:19;99301.53;;;6.47;85.23
49515;BME280;35415;47.870;16.058;2023-02-13T13:18:57;99301.91;;;6.44;83.79
49515;BME280;35415;47.870;16.058;2023-02-13T13:21:34;99298.84;;;6.47;83.73
49515;BME280;35415;47.870;16.058;2023-02-13T13:24:17;99307.06;;;6.45;83.56
49515;BME280;35415;47.870;16.058;2023-02-13T13:26:50;99314.06;;;6.46;83.35